createdAt,value
2022-09-16T00:00:59.069Z,96743.95
2022-09-16T00:03:43.932Z,96746.46
2022-09-16T00:06:22.824Z,96739.00
2022-09-16T00:08:55.920Z,96737.95
2022-09-16T00:11:26.736Z,96741.02
2022-09-16T00:13:56.643Z,96740.38
2022-09-16T00:16:28.708Z,96742.25
2022-09-16T00:19:02.075Z,96743.77
2022-09-16T00:21:34.080Z,96743.45
2022-09-16T00:24:05.966Z,96742.57
2022-09-16T00:26:38.775Z,96748.36
2022-09-16T00:29:09.921Z,96750.16
2022-09-16T00:31:41.005Z,96752.11
2022-09-16T00:34:12.380Z,96749.05
2022-09-16T00:36:43.281Z,96742.26
2022-09-16T00:39:14.310Z,96742.05
2022-09-16T00:41:45.287Z,96737.91
2022-09-16T00:44:46.620Z,96738.64
2022-09-16T00:47:21.710Z,96752.39
2022-09-16T00:49:57.398Z,96749.81
2022-09-16T00:52:30.052Z,96749.37
2022-09-16T00:55:02.603Z,96746.83
2022-09-16T00:57:34.080Z,96752.81
2022-09-16T01:00:08.460Z,96751.46
2022-09-16T01:02:39.477Z,96751.86
2022-09-16T01:05:14.271Z,96744.70
2022-09-16T01:07:48.374Z,96738.21
2022-09-16T01:10:24.300Z,96735.86
2022-09-16T01:12:59.494Z,96732.81
2022-09-16T01:15:38.550Z,96735.41
2022-09-16T01:18:21.689Z,96736.88
2022-09-16T01:21:23.939Z,96742.17
2022-09-16T01:24:25.224Z,96744.94
2022-09-16T01:27:43.779Z,96749.71
2022-09-16T01:30:49.938Z,96749.55
2022-09-16T01:33:34.988Z,96746.11
2022-09-16T01:36:25.036Z,96757.98
2022-09-16T01:39:09.118Z,96759.50
2022-09-16T01:41:53.125Z,96760.41
2022-09-16T01:44:30.855Z,96760.89
2022-09-16T01:47:09.327Z,96756.25
2022-09-16T01:49:48.184Z,96752.80
2022-09-16T01:52:25.830Z,96747.48
2022-09-16T01:55:03.978Z,96742.02
2022-09-16T01:57:39.288Z,96746.44
2022-09-16T02:00:14.839Z,96756.23
2022-09-16T02:02:53.380Z,96768.46
2022-09-16T02:05:29.023Z,96763.48
2022-09-16T02:08:05.253Z,96757.48
2022-09-16T02:10:40.743Z,96765.23
2022-09-16T02:13:18.370Z,96759.58
2022-09-16T02:15:52.833Z,96755.48
2022-09-16T02:18:29.642Z,96750.02
2022-09-16T02:21:04.265Z,96741.56
2022-09-16T02:23:39.726Z,96731.48
2022-09-16T02:26:14.720Z,96725.88
2022-09-16T02:28:49.474Z,96727.09
2022-09-16T02:31:25.836Z,96726.50
2022-09-16T02:34:01.363Z,96727.77
2022-09-16T02:36:35.665Z,96727.10
2022-09-16T02:39:10.826Z,96730.79
2022-09-16T02:41:43.858Z,96735.42
2022-09-16T02:44:15.213Z,96753.04
2022-09-16T02:46:55.580Z,96760.73
2022-09-16T02:49:31.784Z,96767.95
2022-09-16T02:52:11.024Z,96766.07
2022-09-16T02:54:50.100Z,96763.02
2022-09-16T02:57:21.497Z,96762.08
2022-09-16T02:59:53.076Z,96757.02
2022-09-16T03:02:24.161Z,96757.81
2022-09-16T03:04:55.347Z,96762.32
2022-09-16T03:07:26.071Z,96758.49
2022-09-16T03:09:57.632Z,96760.27
2022-09-16T03:12:59.572Z,96760.52
2022-09-16T03:15:42.347Z,96759.77
2022-09-16T03:18:47.475Z,96756.29
2022-09-16T03:21:24.922Z,96753.69
2022-09-16T03:24:08.815Z,96754.20
2022-09-16T03:26:47.576Z,96754.90
2022-09-16T03:29:25.798Z,96754.48
2022-09-16T03:32:07.646Z,96749.88
2022-09-16T03:34:43.082Z,96746.55
2022-09-16T03:37:16.809Z,96742.67
2022-09-16T03:39:53.619Z,96743.13
2022-09-16T03:42:25.068Z,96740.70
2022-09-16T03:44:55.914Z,96733.84
2022-09-16T03:47:25.174Z,96725.52
2022-09-16T03:49:56.502Z,96729.66
2022-09-16T03:52:27.876Z,96728.23
2022-09-16T03:54:58.897Z,96729.23
2022-09-16T03:57:30.699Z,96735.30
2022-09-16T04:00:01.616Z,96733.84
2022-09-16T04:02:33.133Z,96736.34
2022-09-16T04:05:04.429Z,96738.85
2022-09-16T04:07:36.687Z,96733.77
2022-09-16T04:10:11.962Z,96741.39
2022-09-16T04:12:43.056Z,96736.56
2022-09-16T04:15:14.543Z,96733.06
2022-09-16T04:17:45.383Z,96732.89
2022-09-16T04:20:16.790Z,96734.20
2022-09-16T04:22:47.947Z,96735.05
2022-09-16T04:25:19.252Z,96741.84
2022-09-16T04:27:50.514Z,96735.98
2022-09-16T04:30:21.770Z,96731.41
2022-09-16T04:32:53.734Z,96733.14
2022-09-16T04:35:25.221Z,96737.09
2022-09-16T04:37:56.083Z,96734.71
2022-09-16T04:40:25.493Z,96734.30
2022-09-16T04:42:55.073Z,96731.62
2022-09-16T04:45:25.945Z,96730.88
2022-09-16T04:47:58.266Z,96726.66
2022-09-16T04:50:29.613Z,96733.02
2022-09-16T04:53:00.736Z,96726.45
2022-09-16T04:55:30.241Z,96726.73
2022-09-16T04:58:02.694Z,96731.75
2022-09-16T05:00:33.779Z,96741.80
2022-09-16T05:03:04.801Z,96744.52
2022-09-16T05:05:36.228Z,96748.96
2022-09-16T05:08:07.628Z,96748.10
2022-09-16T05:10:38.552Z,96745.91
2022-09-16T05:13:07.841Z,96749.42
2022-09-16T05:15:38.955Z,96747.27
2022-09-16T05:18:10.030Z,96746.85
2022-09-16T05:20:39.295Z,96744.38
2022-09-16T05:23:10.884Z,96747.38
2022-09-16T05:25:41.673Z,96746.56
2022-09-16T05:28:11.163Z,96746.40
2022-09-16T05:30:42.670Z,96742.52
2022-09-16T05:33:14.416Z,96748.31
2022-09-16T05:35:45.990Z,96749.64
2022-09-16T05:38:18.194Z,96754.60
2022-09-16T05:40:49.626Z,96748.98
2022-09-16T05:43:20.764Z,96746.59
2022-09-16T05:45:53.598Z,96746.95
2022-09-16T05:48:26.011Z,96749.61
2022-09-16T05:50:59.210Z,96750.02
2022-09-16T05:53:32.042Z,96746.73
2022-09-16T05:56:04.887Z,96746.19
2022-09-16T05:58:36.930Z,96741.45
2022-09-16T06:01:10.169Z,96741.48
2022-09-16T06:03:42.783Z,96735.17
2022-09-16T06:06:19.700Z,96731.80
2022-09-16T06:08:51.207Z,96737.59
2022-09-16T06:11:22.234Z,96738.36
2022-09-16T06:14:00.233Z,96735.00
2022-09-16T06:16:33.157Z,96739.54
2022-09-16T06:19:05.896Z,96739.52
2022-09-16T06:21:37.486Z,96739.02
2022-09-16T06:24:09.320Z,96742.89
2022-09-16T06:26:42.869Z,96743.13
2022-09-16T06:29:14.376Z,96741.76
2022-09-16T06:31:45.485Z,96739.77
2022-09-16T06:34:19.691Z,96734.45
2022-09-16T06:36:50.936Z,96729.84
2022-09-16T06:39:23.743Z,96734.77
2022-09-16T06:41:59.784Z,96739.94
2022-09-16T06:44:30.834Z,96734.48
2022-09-16T06:47:01.503Z,96739.08
2022-09-16T06:49:31.246Z,96740.26
2022-09-16T06:52:02.341Z,96736.05
2022-09-16T06:54:34.571Z,96734.52
2022-09-16T06:57:11.351Z,96730.22
2022-09-16T06:59:43.250Z,96732.45
2022-09-16T07:02:14.724Z,96731.25
2022-09-16T07:04:46.422Z,96727.54
2022-09-16T07:07:17.326Z,96731.41
2022-09-16T07:09:49.044Z,96727.55
2022-09-16T07:12:20.325Z,96734.03
2022-09-16T07:14:51.308Z,96736.20
2022-09-16T07:17:23.716Z,96736.77
2022-09-16T07:19:54.745Z,96736.33
2022-09-16T07:22:25.556Z,96730.39
2022-09-16T07:24:56.595Z,96727.46
2022-09-16T07:27:27.943Z,96729.16
2022-09-16T07:30:00.218Z,96726.94
2022-09-16T07:32:31.406Z,96728.93
2022-09-16T07:35:02.601Z,96732.86
2022-09-16T07:37:33.570Z,96734.54
2022-09-16T07:40:05.671Z,96740.74
2022-09-16T07:42:36.679Z,96749.86
2022-09-16T07:45:09.298Z,96748.85
2022-09-16T07:47:40.482Z,96748.68
2022-09-16T07:50:13.350Z,96743.05
2022-09-16T07:55:17.536Z,96736.09
2022-09-16T07:57:48.359Z,96742.79
2022-09-16T08:00:20.067Z,96742.23
2022-09-16T08:02:51.090Z,96740.64
2022-09-16T08:05:21.972Z,96740.84
2022-09-16T08:07:52.788Z,96741.99
2022-09-16T08:10:23.626Z,96749.69
2022-09-16T08:12:52.826Z,96745.71
2022-09-16T08:15:23.679Z,96752.79
2022-09-16T08:17:53.037Z,96748.56
2022-09-16T08:20:24.431Z,96747.48
2022-09-16T08:22:57.960Z,96750.08
2022-09-16T08:25:29.175Z,96745.55
2022-09-16T08:28:00.189Z,96748.29
2022-09-16T08:30:30.907Z,96748.91
2022-09-16T08:33:02.130Z,96743.22
2022-09-16T08:35:33.548Z,96739.64
2022-09-16T08:38:04.638Z,96737.61
2022-09-16T08:40:37.585Z,96740.14
2022-09-16T08:43:16.984Z,96740.65
2022-09-16T08:46:02.534Z,96746.61
2022-09-16T08:48:45.871Z,96748.79
2022-09-16T08:51:21.020Z,96751.44
2022-09-16T08:53:57.800Z,96754.08
2022-09-16T08:56:34.628Z,96756.00
2022-09-16T08:59:10.583Z,96754.08
2022-09-16T09:01:46.351Z,96745.42
2022-09-16T09:04:18.094Z,96744.09
2022-09-16T09:07:00.725Z,96743.41
2022-09-16T09:09:49.564Z,96747.30
2022-09-16T09:12:31.165Z,96745.08
2022-09-16T09:15:22.883Z,96745.35
2022-09-16T09:18:11.757Z,96740.14
2022-09-16T09:20:51.572Z,96743.13
2022-09-16T09:23:41.734Z,96745.84
2022-09-16T09:26:21.559Z,96742.04
2022-09-16T09:29:22.270Z,96734.23
2022-09-16T09:32:01.287Z,96726.77
2022-09-16T09:34:45.265Z,96730.34
2022-09-16T09:37:30.701Z,96734.11
2022-09-16T09:40:11.882Z,96734.84
2022-09-16T09:42:50.315Z,96737.52
2022-09-16T09:45:30.984Z,96738.86
2022-09-16T09:48:06.044Z,96739.32
2022-09-16T09:50:43.551Z,96735.27
2022-09-16T09:53:21.001Z,96739.89
2022-09-16T09:55:59.488Z,96739.61
2022-09-16T09:58:38.532Z,96741.82
2022-09-16T10:01:11.508Z,96742.43
2022-09-16T10:03:42.820Z,96738.39
2022-09-16T10:06:15.781Z,96733.29
2022-09-16T10:08:49.696Z,96721.79
2022-09-16T10:11:22.917Z,96726.31
2022-09-16T10:13:55.613Z,96722.16
2022-09-16T10:16:30.003Z,96722.11
2022-09-16T10:19:04.412Z,96726.31
2022-09-16T10:21:46.217Z,96724.30
2022-09-16T10:24:34.131Z,96722.12
2022-09-16T10:27:21.141Z,96720.78
2022-09-16T10:30:06.100Z,96715.18
2022-09-16T10:32:46.718Z,96712.63
2022-09-16T10:35:23.504Z,96713.02
2022-09-16T10:37:54.740Z,96711.13
2022-09-16T10:40:26.768Z,96710.95
2022-09-16T10:43:02.212Z,96711.52
2022-09-16T10:45:36.223Z,96713.35
2022-09-16T10:48:13.258Z,96713.70
2022-09-16T10:50:55.153Z,96706.92
2022-09-16T10:53:32.590Z,96703.55
2022-09-16T10:56:05.688Z,96703.64
2022-09-16T10:58:36.669Z,96701.87
2022-09-16T11:01:31.665Z,96687.83
2022-09-16T11:04:25.704Z,96691.13
2022-09-16T11:07:09.074Z,96686.05
2022-09-16T11:09:50.295Z,96684.15
2022-09-16T11:13:08.497Z,96682.75
2022-09-16T11:15:53.427Z,96672.77
2022-09-16T11:18:32.526Z,96669.29
2022-09-16T11:21:22.212Z,96667.25
2022-09-16T11:24:10.031Z,96664.23
2022-09-16T11:26:51.460Z,96665.88
2022-09-16T11:29:39.864Z,96669.02
2022-09-16T11:32:22.245Z,96674.36
2022-09-16T11:35:09.584Z,96674.95
2022-09-16T11:37:47.484Z,96677.05
2022-09-16T11:40:30.242Z,96687.23
2022-09-16T11:43:14.682Z,96683.34
2022-09-16T11:45:53.499Z,96681.57
2022-09-16T11:48:48.075Z,96689.64
2022-09-16T11:51:33.821Z,96680.14
2022-09-16T11:54:19.974Z,96675.50
2022-09-16T11:56:54.644Z,96671.19
2022-09-16T11:59:33.164Z,96674.11
2022-09-16T12:02:15.583Z,96674.86
2022-09-16T12:04:53.370Z,96692.58
2022-09-16T12:07:30.892Z,96686.58
2022-09-16T12:10:13.713Z,96687.50
2022-09-16T12:12:49.451Z,96683.39
2022-09-16T12:15:26.987Z,96682.23
2022-09-16T12:18:02.627Z,96678.67
2022-09-16T12:20:38.072Z,96672.98
2022-09-16T12:23:15.944Z,96666.98
2022-09-16T12:25:53.932Z,96665.75
2022-09-16T12:28:30.612Z,96662.41
2022-09-16T12:31:12.118Z,96659.14
2022-09-16T12:33:51.739Z,96653.88
2022-09-16T12:36:26.808Z,96651.34
2022-09-16T12:39:00.793Z,96651.23
2022-09-16T12:41:49.961Z,96653.36
2022-09-16T12:44:44.593Z,96649.47
2022-09-16T12:47:27.665Z,96649.00
2022-09-16T12:50:46.889Z,96646.00
2022-09-16T12:53:46.674Z,96642.11
2022-09-16T12:56:34.009Z,96631.64
2022-09-16T12:59:21.276Z,96628.19
2022-09-16T13:01:59.553Z,96622.52
2022-09-16T13:04:35.741Z,96621.88
2022-09-16T13:07:07.696Z,96618.72
2022-09-16T13:09:40.855Z,96613.08
2022-09-16T13:12:39.297Z,96611.17
2022-09-16T13:15:28.380Z,96603.36
2022-09-16T13:18:11.706Z,96604.31
2022-09-16T13:20:50.378Z,96603.42
2022-09-16T13:23:26.182Z,96599.52
2022-09-16T13:26:02.056Z,96605.23
2022-09-16T13:28:41.988Z,96606.14
2022-09-16T13:31:21.189Z,96602.88
2022-09-16T13:34:15.409Z,96603.15
2022-09-16T13:36:46.649Z,96606.30
2022-09-16T13:39:31.556Z,96603.81
2022-09-16T13:42:20.437Z,96596.52
2022-09-16T13:44:52.411Z,96598.42
2022-09-16T13:47:40.412Z,96599.45
2022-09-16T13:50:17.338Z,96599.11
2022-09-16T13:52:50.790Z,96603.05
2022-09-16T13:55:25.277Z,96598.02
2022-09-16T13:58:03.079Z,96598.83
2022-09-16T14:00:41.799Z,96598.84
2022-09-16T14:03:40.835Z,96600.75
2022-09-16T14:06:34.302Z,96600.84
2022-09-16T14:09:29.492Z,96605.08
2022-09-16T14:12:08.676Z,96606.52
2022-09-16T14:14:47.386Z,96610.07
2022-09-16T14:17:23.637Z,96614.02
2022-09-16T14:19:59.287Z,96618.85
2022-09-16T14:22:31.764Z,96616.39
2022-09-16T14:25:12.840Z,96614.91
2022-09-16T14:27:50.347Z,96615.48
2022-09-16T14:30:22.740Z,96617.66
2022-09-16T14:32:53.953Z,96616.11
2022-09-16T14:35:27.675Z,96614.15
2022-09-16T14:38:01.834Z,96608.02
2022-09-16T14:40:32.936Z,96606.33
2022-09-16T14:43:09.017Z,96598.03
2022-09-16T14:45:45.827Z,96589.91
2022-09-16T14:48:19.919Z,96597.88
2022-09-16T14:50:52.602Z,96608.01
2022-09-16T14:53:35.372Z,96605.61
2022-09-16T14:56:19.195Z,96608.60
2022-09-16T14:58:51.836Z,96604.98
2022-09-16T15:01:28.257Z,96604.14
2022-09-16T15:04:02.502Z,96603.29
2022-09-16T15:06:42.199Z,96596.40
2022-09-16T15:09:21.504Z,96602.18
2022-09-16T15:11:56.406Z,96605.02
2022-09-16T15:14:27.867Z,96602.13
2022-09-16T15:17:03.423Z,96601.75
2022-09-16T15:19:37.803Z,96603.10
2022-09-16T15:22:14.573Z,96604.97
2022-09-16T15:24:48.189Z,96604.61
2022-09-16T15:27:26.270Z,96600.42
2022-09-16T15:30:01.105Z,96599.18
2022-09-16T15:32:32.745Z,96595.48
2022-09-16T15:35:23.195Z,96593.36
2022-09-16T15:37:55.822Z,96592.33
2022-09-16T15:40:35.872Z,96585.44
2022-09-16T15:43:16.960Z,96573.60
2022-09-16T15:46:00.279Z,96575.97
2022-09-16T15:48:35.478Z,96577.80
2022-09-16T15:51:12.299Z,96575.70
2022-09-16T15:53:44.552Z,96576.98
2022-09-16T15:56:26.553Z,96573.64
2022-09-16T15:59:01.641Z,96572.02
2022-09-16T16:01:44.574Z,96574.27
2022-09-16T16:04:24.248Z,96572.95
2022-09-16T16:06:57.728Z,96576.89
2022-09-16T16:09:40.445Z,96576.60
2022-09-16T16:12:13.963Z,96579.48
2022-09-16T16:14:46.670Z,96583.03
2022-09-16T16:17:20.158Z,96587.20
2022-09-16T16:19:52.181Z,96585.52
2022-09-16T16:22:23.040Z,96585.05
2022-09-16T16:24:55.311Z,96585.81
2022-09-16T16:27:26.256Z,96582.17
2022-09-16T16:29:57.450Z,96581.00
2022-09-16T16:32:28.771Z,96576.13
2022-09-16T16:35:00.615Z,96573.09
2022-09-16T16:37:46.011Z,96577.21
2022-09-16T16:40:18.502Z,96575.85
2022-09-16T16:42:50.398Z,96573.16
2022-09-16T16:45:21.255Z,96575.77
2022-09-16T16:47:51.922Z,96579.34
2022-09-16T16:50:22.678Z,96575.83
2022-09-16T16:52:54.130Z,96577.23
2022-09-16T16:55:25.191Z,96576.73
2022-09-16T16:57:56.335Z,96579.08
2022-09-16T17:00:27.811Z,96579.95
2022-09-16T17:02:58.997Z,96586.71
2022-09-16T17:05:30.928Z,96588.19
2022-09-16T17:08:01.970Z,96589.31
2022-09-16T17:10:33.338Z,96593.86
2022-09-16T17:13:04.152Z,96600.59
2022-09-16T17:15:35.258Z,96608.51
2022-09-16T17:18:06.266Z,96614.18
2022-09-16T17:20:37.119Z,96621.71
2022-09-16T17:23:08.221Z,96622.52
2022-09-16T17:25:39.345Z,96618.30
2022-09-16T17:28:10.248Z,96618.65
2022-09-16T17:30:43.857Z,96618.59
2022-09-16T17:33:14.888Z,96617.06
2022-09-16T17:35:46.091Z,96622.39
2022-09-16T17:38:17.345Z,96627.67
2022-09-16T17:40:48.796Z,96628.83
2022-09-16T17:43:20.004Z,96629.48
2022-09-16T17:45:53.542Z,96630.02
2022-09-16T17:48:24.648Z,96628.30
2022-09-16T17:50:56.035Z,96631.16
2022-09-16T17:53:27.467Z,96629.47
2022-09-16T17:56:06.817Z,96636.20
2022-09-16T17:58:39.403Z,96633.67
2022-09-16T18:01:12.862Z,96635.48
2022-09-16T18:03:46.232Z,96637.62
2022-09-16T18:06:19.858Z,96641.21
2022-09-16T18:08:51.996Z,96642.05
2022-09-16T18:11:23.193Z,96643.23
2022-09-16T18:13:58.407Z,96640.64
2022-09-16T18:16:30.319Z,96645.39
2022-09-16T18:19:03.262Z,96646.88
2022-09-16T18:21:36.899Z,96644.79
2022-09-16T18:24:11.319Z,96649.10
2022-09-16T18:26:43.235Z,96655.52
2022-09-16T18:29:15.141Z,96656.40
2022-09-16T18:31:48.812Z,96656.20
2022-09-16T18:34:19.943Z,96660.41
2022-09-16T18:36:50.730Z,96660.64
2022-09-16T18:39:20.065Z,96662.64
2022-09-16T18:41:50.913Z,96663.73
2022-09-16T18:44:24.653Z,96665.03
2022-09-16T18:46:56.131Z,96667.02
2022-09-16T18:49:29.056Z,96671.38
2022-09-16T18:51:59.812Z,96673.91
2022-09-16T18:54:33.466Z,96678.64
2022-09-16T18:57:04.652Z,96680.08
2022-09-16T18:59:37.128Z,96680.57
2022-09-16T19:02:10.955Z,96681.59
2022-09-16T19:04:43.866Z,96682.23
2022-09-16T19:07:17.347Z,96682.81
2022-09-16T19:09:48.957Z,96681.44
2022-09-16T19:12:19.954Z,96680.38
2022-09-16T19:14:54.221Z,96677.02
2022-09-16T19:17:25.398Z,96684.34
2022-09-16T19:19:57.158Z,96688.88
2022-09-16T19:22:28.300Z,96692.95
2022-09-16T19:24:57.617Z,96693.02
2022-09-16T19:27:28.477Z,96696.54
2022-09-16T19:29:59.396Z,96697.24
2022-09-16T19:32:30.516Z,96695.83
2022-09-16T19:35:01.491Z,96696.33
2022-09-16T19:37:32.350Z,96700.67
2022-09-16T19:40:03.961Z,96701.60
2022-09-16T19:42:34.868Z,96696.20
2022-09-16T19:45:06.903Z,96696.04
2022-09-16T19:47:37.628Z,96696.33
2022-09-16T19:50:11.833Z,96698.89
2022-09-16T19:52:42.867Z,96696.61
2022-09-16T19:55:14.114Z,96694.18
2022-09-16T19:57:45.008Z,96689.20
2022-09-16T20:00:17.366Z,96695.29
2022-09-16T20:02:48.574Z,96694.81
2022-09-16T20:05:19.916Z,96695.20
2022-09-16T20:07:50.772Z,96693.16
2022-09-16T20:10:21.976Z,96698.00
2022-09-16T20:12:57.305Z,96695.56
2022-09-16T20:15:30.179Z,96692.09
2022-09-16T20:18:01.242Z,96691.65
2022-09-16T20:20:32.006Z,96691.21
2022-09-16T20:23:03.362Z,96689.77
2022-09-16T20:25:33.374Z,96690.98
2022-09-16T20:28:04.623Z,96689.77
2022-09-16T20:30:35.459Z,96689.98
2022-09-16T20:33:06.643Z,96694.41
2022-09-16T20:35:37.523Z,96692.45
2022-09-16T20:38:08.430Z,96695.41
2022-09-16T20:40:39.830Z,96698.56
2022-09-16T20:43:10.752Z,96698.00
2022-09-16T20:45:42.186Z,96701.89
2022-09-16T20:48:13.643Z,96700.60
2022-09-16T20:50:44.475Z,96699.27
2022-09-16T20:53:15.225Z,96701.17
2022-09-16T20:55:45.926Z,96703.48
2022-09-16T20:58:16.757Z,96707.67
2022-09-16T21:00:48.410Z,96710.20
2022-09-16T21:03:19.864Z,96705.71
2022-09-16T21:05:51.112Z,96706.95
2022-09-16T21:08:20.425Z,96704.54
2022-09-16T21:10:52.107Z,96704.81
2022-09-16T21:13:25.031Z,96701.09
2022-09-16T21:15:59.875Z,96696.52
2022-09-16T21:18:31.915Z,96702.44
2022-09-16T21:21:04.712Z,96698.61
2022-09-16T21:23:37.079Z,96698.21
2022-09-16T21:26:12.371Z,96698.38
2022-09-16T21:28:44.519Z,96703.19
2022-09-16T21:31:16.775Z,96704.93
2022-09-16T21:33:49.582Z,96702.79
2022-09-16T21:36:21.670Z,96708.27
2022-09-16T21:38:53.404Z,96704.80
2022-09-16T21:41:26.754Z,96706.90
2022-09-16T21:43:59.023Z,96704.08
2022-09-16T21:46:31.956Z,96707.52
2022-09-16T21:49:04.740Z,96708.85
2022-09-16T21:51:39.896Z,96709.04
2022-09-16T21:54:14.591Z,96709.55
2022-09-16T21:56:48.234Z,96710.48
2022-09-16T21:59:20.451Z,96710.92
2022-09-16T22:01:52.326Z,96715.77
2022-09-16T22:04:24.862Z,96711.88
2022-09-16T22:06:56.592Z,96717.84
2022-09-16T22:09:31.766Z,96722.37
2022-09-16T22:12:03.312Z,96721.25
2022-09-16T22:14:33.961Z,96718.27
2022-09-16T22:17:05.053Z,96715.39
2022-09-16T22:19:35.947Z,96716.08
2022-09-16T22:22:07.245Z,96718.96
2022-09-16T22:24:38.240Z,96717.34
2022-09-16T22:27:12.329Z,96715.83
2022-09-16T22:29:43.247Z,96713.21
2022-09-16T22:32:13.977Z,96711.98
2022-09-16T22:34:44.911Z,96713.94
2022-09-16T22:37:15.795Z,96706.34
2022-09-16T22:39:46.716Z,96701.98
2022-09-16T22:42:17.764Z,96702.28
2022-09-16T22:44:48.552Z,96699.36
2022-09-16T22:47:19.537Z,96698.39
2022-09-16T22:49:50.499Z,96705.09
2022-09-16T22:52:21.195Z,96701.96
2022-09-16T22:54:52.109Z,96700.27
2022-09-16T22:57:23.354Z,96701.62
2022-09-16T22:59:54.211Z,96695.60
2022-09-16T23:02:25.251Z,96691.38
2022-09-16T23:04:55.719Z,96694.80
2022-09-16T23:07:26.962Z,96693.02
2022-09-16T23:09:58.212Z,96698.24
2022-09-16T23:12:29.523Z,96692.40
2022-09-16T23:15:00.664Z,96687.81
2022-09-16T23:17:31.437Z,96686.33
2022-09-16T23:20:00.996Z,96689.15
2022-09-16T23:22:31.824Z,96689.43
2022-09-16T23:25:02.945Z,96690.10
2022-09-16T23:27:32.418Z,96688.23
2022-09-16T23:30:03.245Z,96687.80
2022-09-16T23:32:34.136Z,96687.86
2022-09-16T23:35:05.233Z,96682.52
2022-09-16T23:37:36.274Z,96688.95
2022-09-16T23:40:06.369Z,96684.10
2022-09-16T23:42:37.434Z,96691.41
2022-09-16T23:45:10.026Z,96686.26
2022-09-16T23:47:40.838Z,96687.23
2022-09-16T23:50:13.189Z,96684.07
2022-09-16T23:52:44.053Z,96687.15
2022-09-16T23:55:14.899Z,96680.27
2022-09-16T23:57:46.145Z,96680.33
